Terminal Aerodrome Forecast
Issued by NWS

Current Version | Previous Version | Text Only | Print | Product List | Glossary On
Versions: 1 2 3 4 5 6 7 8 9 10 11 12 13 14 15 16 17 18 19 20 21 22 23 24 25 26 27 28 29 30 31 32 33 34 35 36 37 38 39 40 41 42 43 44 45 46 47 48 49 50
000
FTUS41 KCTP 211934 AAA
TAFUNV
TAF AMD
KUNV 211934Z 2120/2218 VRB03KT 6SM TS VCTS SCT010 OVC030CB
     FM212100 VRB04KT P6SM BKN100
     FM220700 27004KT 2SM BR OVC003
      TEMPO 2210/2213 1/2SM FG OVC001
     FM221500 27004KT 4SM HZ OVC007=

USA.gov is the U.S. government's official web portal to all federal, state and local government web resources and services.